createdAt,value
2017-08-15T00:01:13.889Z,5.50
2017-08-15T00:03:43.224Z,5.10
2017-08-15T00:06:11.706Z,5.20
2017-08-15T00:08:40.175Z,10.07
2017-08-15T00:11:08.643Z,5.97
2017-08-15T00:13:37.863Z,5.07
2017-08-15T00:16:06.339Z,5.77
2017-08-15T00:18:34.894Z,5.77
2017-08-15T00:21:03.356Z,7.37
2017-08-15T00:23:31.855Z,6.00
2017-08-15T00:26:00.335Z,5.97
2017-08-15T00:28:29.007Z,5.63
2017-08-15T00:30:57.467Z,6.17
2017-08-15T00:33:25.927Z,7.53
2017-08-15T00:35:54.394Z,6.93
2017-08-15T00:38:22.935Z,7.77
2017-08-15T00:40:51.179Z,6.40
2017-08-15T00:43:19.275Z,6.77
2017-08-15T00:45:48.935Z,6.40
2017-08-15T00:48:18.387Z,5.77
2017-08-15T00:50:47.854Z,6.17
2017-08-15T00:53:17.299Z,5.93
2017-08-15T00:55:46.742Z,6.93
2017-08-15T00:58:16.197Z,5.20
2017-08-15T01:00:45.298Z,5.67
2017-08-15T01:03:14.774Z,5.50
2017-08-15T01:05:44.210Z,5.50
2017-08-15T01:08:13.679Z,6.20
2017-08-15T01:10:43.130Z,5.67
2017-08-15T01:13:11.707Z,6.60
2017-08-15T01:15:40.181Z,6.70
2017-08-15T01:18:08.649Z,6.37
2017-08-15T01:20:37.132Z,7.10
2017-08-15T01:23:05.620Z,7.07
2017-08-15T01:25:34.092Z,6.20
2017-08-15T01:28:02.676Z,6.77
2017-08-15T01:30:31.135Z,7.87
2017-08-15T01:33:00.364Z,6.20
2017-08-15T01:35:28.831Z,6.37
2017-08-15T01:37:57.095Z,7.03
2017-08-15T01:40:26.318Z,7.80
2017-08-15T01:42:54.799Z,6.73
2017-08-15T01:45:23.250Z,6.73
2017-08-15T01:47:52.502Z,6.63
2017-08-15T01:50:20.954Z,6.67
2017-08-15T01:52:49.506Z,5.50
2017-08-15T01:55:18.019Z,6.67
2017-08-15T01:57:46.483Z,6.40
2017-08-15T02:00:15.714Z,6.53
2017-08-15T02:02:44.171Z,6.47
2017-08-15T02:05:13.413Z,6.73
2017-08-15T02:07:41.992Z,6.70
2017-08-15T02:10:10.456Z,6.70
2017-08-15T02:12:38.926Z,6.57
2017-08-15T02:15:08.187Z,6.87
2017-08-15T02:17:36.656Z,6.73
2017-08-15T02:20:05.139Z,10.80
2017-08-15T02:22:33.723Z,6.83
2017-08-15T02:25:02.311Z,7.07
2017-08-15T02:27:30.778Z,6.17
2017-08-15T02:29:59.235Z,6.77
2017-08-15T02:32:27.690Z,10.13
2017-08-15T02:34:57.150Z,7.03
2017-08-15T02:37:26.614Z,6.90
2017-08-15T02:39:56.070Z,6.53
2017-08-15T02:42:25.515Z,6.83
2017-08-15T02:44:54.987Z,6.63
2017-08-15T02:47:24.428Z,7.80
2017-08-15T02:49:53.715Z,8.23
2017-08-15T02:52:22.179Z,7.00
2017-08-15T02:54:50.667Z,6.80
2017-08-15T02:57:19.156Z,6.67
2017-08-15T02:59:47.755Z,9.53
2017-08-15T03:02:16.403Z,7.00
2017-08-15T03:04:44.883Z,7.87
2017-08-15T03:07:13.343Z,7.77
2017-08-15T03:09:41.795Z,7.20
2017-08-15T03:12:11.027Z,7.37
2017-08-15T03:14:39.499Z,7.10
2017-08-15T03:17:08.004Z,7.73
2017-08-15T03:19:36.478Z,12.17
2017-08-15T03:22:04.946Z,11.00
2017-08-15T03:24:33.401Z,7.40
2017-08-15T03:27:02.625Z,5.97
2017-08-15T03:29:31.099Z,6.40
2017-08-15T03:32:00.331Z,6.53
2017-08-15T03:34:28.880Z,6.57
2017-08-15T03:36:58.110Z,6.30
2017-08-15T03:39:26.555Z,6.70
2017-08-15T03:41:55.788Z,5.67
2017-08-15T03:44:24.267Z,7.13
2017-08-15T03:46:52.722Z,7.83
2017-08-15T03:49:21.935Z,6.90
2017-08-15T03:51:50.447Z,7.67
2017-08-15T03:54:18.915Z,7.67
2017-08-15T03:56:47.391Z,7.20
2017-08-15T03:59:15.839Z,7.63
2017-08-15T04:01:45.122Z,7.60
2017-08-15T04:04:13.619Z,6.93
2017-08-15T04:06:42.119Z,6.37
2017-08-15T04:09:11.355Z,7.50
2017-08-15T04:11:39.827Z,7.33
2017-08-15T04:14:08.282Z,7.20
2017-08-15T04:16:37.518Z,6.97
2017-08-15T04:19:05.982Z,7.80
2017-08-15T04:21:34.428Z,7.87
2017-08-15T04:24:02.895Z,7.23
2017-08-15T04:26:31.356Z,6.43
2017-08-15T04:28:59.807Z,7.60
2017-08-15T04:31:28.310Z,8.57
2017-08-15T04:33:56.775Z,9.10
2017-08-15T04:36:25.258Z,7.47
2017-08-15T04:38:53.719Z,7.00
2017-08-15T04:41:22.942Z,8.20
2017-08-15T04:43:51.415Z,9.63
2017-08-15T04:46:20.047Z,7.20
2017-08-15T04:48:48.744Z,6.70
2017-08-15T04:51:17.227Z,6.10
2017-08-15T04:53:45.687Z,7.47
2017-08-15T04:56:14.255Z,6.10
2017-08-15T04:58:42.726Z,6.10
2017-08-15T05:01:11.235Z,7.10
2017-08-15T05:03:39.712Z,6.40
2017-08-15T05:06:08.167Z,8.40
2017-08-15T05:08:36.640Z,8.37
2017-08-15T05:11:05.927Z,6.40
2017-08-15T05:13:35.146Z,9.10
2017-08-15T05:16:04.383Z,7.40
2017-08-15T05:18:32.850Z,7.13
2017-08-15T05:21:01.315Z,5.97
2017-08-15T05:23:29.816Z,8.40
2017-08-15T05:25:58.264Z,6.23
2017-08-15T05:28:27.486Z,5.70
2017-08-15T05:30:55.968Z,6.50
2017-08-15T05:33:24.430Z,6.63
2017-08-15T05:35:53.880Z,6.33
2017-08-15T05:38:22.355Z,7.30
2017-08-15T05:40:50.935Z,7.90
2017-08-15T05:43:19.415Z,6.53
2017-08-15T05:45:47.897Z,7.17
2017-08-15T05:48:16.374Z,6.43
2017-08-15T05:50:44.863Z,8.00
2017-08-15T05:53:13.322Z,9.43
2017-08-15T05:55:41.812Z,10.90
2017-08-15T05:58:10.291Z,9.60
2017-08-15T06:00:38.775Z,12.63
2017-08-15T06:03:07.790Z,11.03
2017-08-15T06:05:36.251Z,8.80
2017-08-15T06:08:04.735Z,6.80
2017-08-15T06:10:33.188Z,8.30
2017-08-15T06:13:02.435Z,9.17
2017-08-15T06:15:30.918Z,9.73
2017-08-15T06:17:59.399Z,12.53
2017-08-15T06:20:27.939Z,6.43
2017-08-15T06:22:56.412Z,7.27
2017-08-15T06:25:24.893Z,6.20
2017-08-15T06:27:53.350Z,8.23
2017-08-15T06:30:21.886Z,6.80
2017-08-15T06:32:51.107Z,8.00
2017-08-15T06:35:19.581Z,7.03
2017-08-15T06:37:48.077Z,7.33
2017-08-15T06:40:16.535Z,6.50
2017-08-15T06:42:45.827Z,6.23
2017-08-15T06:45:15.068Z,6.43
2017-08-15T06:47:43.556Z,5.77
2017-08-15T06:50:12.047Z,6.03
2017-08-15T06:52:40.523Z,5.93
2017-08-15T06:55:09.155Z,5.90
2017-08-15T06:57:38.395Z,5.73
2017-08-15T07:00:06.846Z,5.70
2017-08-15T07:02:36.062Z,5.80
2017-08-15T07:05:04.535Z,5.73
2017-08-15T07:07:32.995Z,5.57
2017-08-15T07:10:01.460Z,6.93
2017-08-15T07:12:29.990Z,6.10
2017-08-15T07:14:58.468Z,5.10
2017-08-15T07:17:26.923Z,5.00
2017-08-15T07:19:55.391Z,4.97
2017-08-15T07:22:23.978Z,5.47
2017-08-15T07:24:52.451Z,6.20
2017-08-15T07:27:20.924Z,5.23
2017-08-15T07:29:49.411Z,5.87
2017-08-15T07:32:17.903Z,5.73
2017-08-15T07:34:46.385Z,5.70
2017-08-15T07:37:16.502Z,6.90
2017-08-15T07:39:44.979Z,5.63
2017-08-15T07:42:13.439Z,8.87
2017-08-15T07:44:41.967Z,5.43
2017-08-15T07:47:10.549Z,5.63
2017-08-15T07:49:39.015Z,5.80
2017-08-15T07:52:07.481Z,5.90
2017-08-15T07:54:35.963Z,5.90
2017-08-15T07:57:04.437Z,7.00
2017-08-15T07:59:32.911Z,5.90
2017-08-15T08:02:01.366Z,6.00
2017-08-15T08:04:30.697Z,6.67
2017-08-15T08:06:59.182Z,5.40
2017-08-15T08:09:28.575Z,4.50
2017-08-15T08:11:57.104Z,4.90
2017-08-15T08:14:25.586Z,5.07
2017-08-15T08:16:54.046Z,5.17
2017-08-15T08:19:22.571Z,4.87
2017-08-15T08:21:51.032Z,7.20
2017-08-15T08:24:19.495Z,4.53
2017-08-15T08:26:48.072Z,4.90
2017-08-15T08:29:16.531Z,4.97
2017-08-15T08:31:45.040Z,4.63
2017-08-15T08:34:13.491Z,3.97
2017-08-15T08:36:42.127Z,4.70
2017-08-15T08:39:10.599Z,4.27
2017-08-15T08:41:39.108Z,4.50
2017-08-15T08:44:07.700Z,4.43
2017-08-15T08:46:36.160Z,5.00
2017-08-15T08:49:04.627Z,4.63
2017-08-15T08:51:33.103Z,4.33
2017-08-15T08:54:01.647Z,3.80
2017-08-15T08:56:30.891Z,4.87
2017-08-15T08:58:59.352Z,6.17
2017-08-15T09:01:27.884Z,4.77
2017-08-15T09:03:56.374Z,4.33
2017-08-15T09:06:24.839Z,5.23
2017-08-15T09:08:53.426Z,4.30
2017-08-15T09:11:21.880Z,4.97
2017-08-15T09:13:50.362Z,4.80
2017-08-15T09:16:18.876Z,4.63
2017-08-15T09:18:47.228Z,5.17
2017-08-15T09:21:15.708Z,4.90
2017-08-15T09:23:44.168Z,4.47
2017-08-15T09:26:12.603Z,4.40
2017-08-15T09:28:40.532Z,5.73
2017-08-15T09:31:09.008Z,4.00
2017-08-15T09:33:37.283Z,4.90
2017-08-15T09:36:05.888Z,4.40
2017-08-15T09:38:34.356Z,4.07
2017-08-15T09:41:02.811Z,4.67
2017-08-15T09:43:32.067Z,4.33
2017-08-15T09:46:00.519Z,3.87
2017-08-15T09:48:28.971Z,4.73
2017-08-15T09:50:58.240Z,4.27
2017-08-15T09:53:26.718Z,4.53
2017-08-15T09:55:55.188Z,4.50
2017-08-15T09:58:41.284Z,4.47
2017-08-15T10:01:09.758Z,4.67
2017-08-15T10:03:38.236Z,4.43
2017-08-15T10:06:06.709Z,4.13
2017-08-15T10:08:35.197Z,4.17
2017-08-15T10:11:03.687Z,4.90
2017-08-15T10:13:32.168Z,4.63
2017-08-15T10:16:00.637Z,4.27
2017-08-15T10:18:29.165Z,4.50
2017-08-15T10:20:57.621Z,4.10
2017-08-15T10:23:25.909Z,4.33
2017-08-15T10:25:54.363Z,4.13
2017-08-15T10:28:22.839Z,4.70
2017-08-15T10:30:51.322Z,4.57
2017-08-15T10:33:19.783Z,4.10
2017-08-15T10:35:49.019Z,4.30
2017-08-15T10:38:17.515Z,4.37
2017-08-15T10:40:46.000Z,4.43
2017-08-15T10:43:14.471Z,3.90
2017-08-15T10:45:42.959Z,4.00
2017-08-15T10:48:11.484Z,3.90
2017-08-15T10:50:40.727Z,4.13
2017-08-15T10:53:09.189Z,3.70
2017-08-15T10:55:37.647Z,3.73
2017-08-15T10:58:06.982Z,6.33
2017-08-15T11:00:35.267Z,3.80
2017-08-15T11:03:03.749Z,3.87
2017-08-15T11:05:32.210Z,4.30
2017-08-15T11:08:01.464Z,3.80
2017-08-15T11:10:30.080Z,4.20
2017-08-15T11:12:59.535Z,4.97
2017-08-15T11:15:29.008Z,4.17
2017-08-15T11:17:58.455Z,3.70
2017-08-15T11:20:27.135Z,3.93
2017-08-15T11:22:55.601Z,3.30
2017-08-15T11:25:24.075Z,3.20
2017-08-15T11:27:52.565Z,2.80
2017-08-15T11:30:21.032Z,3.67
2017-08-15T11:32:50.263Z,3.40
2017-08-15T11:35:18.748Z,3.37
2017-08-15T11:37:47.236Z,3.23
2017-08-15T11:40:15.715Z,2.80
2017-08-15T11:42:43.998Z,3.80
2017-08-15T11:45:12.476Z,3.07
2017-08-15T11:47:40.960Z,3.03
2017-08-15T11:50:09.427Z,2.90
2017-08-15T11:52:37.893Z,2.73
2017-08-15T11:55:06.360Z,2.43
2017-08-15T11:57:35.595Z,4.13
2017-08-15T12:00:03.919Z,3.27
2017-08-15T12:02:33.169Z,9.37
2017-08-15T12:05:01.624Z,4.93
2017-08-15T12:07:30.742Z,4.50
2017-08-15T12:09:59.219Z,3.53
2017-08-15T12:12:27.755Z,7.00
2017-08-15T12:14:56.015Z,2.73
2017-08-15T12:17:24.491Z,2.53
2017-08-15T12:19:52.964Z,6.30
2017-08-15T12:22:21.579Z,7.37
2017-08-15T12:24:50.069Z,3.70
2017-08-15T12:27:18.567Z,3.20
2017-08-15T12:29:47.813Z,3.63
2017-08-15T12:32:16.275Z,3.40
2017-08-15T12:34:44.765Z,3.23
2017-08-15T12:37:14.667Z,3.03
2017-08-15T12:39:43.135Z,2.57
2017-08-15T12:42:12.475Z,5.03
2017-08-15T12:44:40.944Z,2.73
2017-08-15T12:47:09.427Z,2.73
2017-08-15T12:49:37.892Z,2.87
2017-08-15T12:52:07.135Z,2.67
2017-08-15T12:54:35.590Z,3.83
2017-08-15T12:57:03.731Z,6.77
2017-08-15T12:59:33.002Z,4.73
2017-08-15T13:02:01.463Z,7.50
2017-08-15T13:04:29.935Z,6.73
2017-08-15T13:06:58.407Z,6.53
2017-08-15T13:09:26.991Z,4.83
2017-08-15T13:11:55.446Z,5.83
2017-08-15T13:14:23.919Z,5.23
2017-08-15T13:16:52.443Z,8.07
2017-08-15T13:19:20.935Z,4.47
2017-08-15T13:21:49.583Z,5.47
2017-08-15T13:24:18.818Z,4.00
2017-08-15T13:26:47.100Z,6.23
2017-08-15T13:29:15.567Z,7.17
2017-08-15T13:31:43.856Z,6.00
2017-08-15T13:34:12.176Z,5.73
2017-08-15T13:36:40.463Z,4.33
2017-08-15T13:39:08.739Z,4.43
2017-08-15T13:41:37.208Z,6.50
2017-08-15T13:44:05.676Z,3.87
2017-08-15T13:46:33.948Z,4.13
2017-08-15T13:49:02.259Z,4.70
2017-08-15T13:51:30.757Z,4.60
2017-08-15T13:53:59.803Z,6.50
2017-08-15T13:56:28.312Z,3.83
2017-08-15T13:58:56.607Z,4.10
2017-08-15T14:01:24.960Z,4.87
2017-08-15T14:03:53.280Z,4.73
2017-08-15T14:06:22.388Z,5.80
2017-08-15T14:08:50.816Z,5.87
2017-08-15T14:11:19.103Z,4.67
2017-08-15T14:13:47.391Z,4.53
2017-08-15T14:16:15.660Z,4.40
2017-08-15T14:18:43.941Z,5.23
2017-08-15T14:21:12.219Z,5.23
2017-08-15T14:23:40.695Z,4.40
2017-08-15T14:26:08.983Z,4.47
2017-08-15T14:28:37.520Z,6.10
2017-08-15T14:31:06.058Z,5.17
2017-08-15T14:33:34.607Z,4.55
2017-08-15T14:36:03.093Z,4.60
2017-08-15T14:38:31.601Z,5.00
2017-08-15T14:40:59.879Z,5.80
2017-08-15T14:43:28.187Z,5.50
2017-08-15T14:45:57.239Z,5.10
2017-08-15T14:48:25.503Z,5.13
2017-08-15T14:50:53.801Z,4.80
2017-08-15T14:53:22.868Z,4.53
2017-08-15T14:55:51.232Z,6.03
2017-08-15T14:58:19.510Z,4.73
2017-08-15T15:00:47.828Z,6.40
2017-08-15T15:03:16.116Z,5.40
2017-08-15T15:05:44.390Z,5.60
2017-08-15T15:08:12.683Z,5.87
2017-08-15T15:10:41.797Z,5.60
2017-08-15T15:13:10.065Z,5.87
2017-08-15T15:15:39.130Z,5.70
2017-08-15T15:18:07.403Z,4.60
2017-08-15T15:20:35.725Z,9.47
2017-08-15T15:23:04.867Z,8.33
2017-08-15T15:25:33.167Z,6.20
2017-08-15T15:28:01.484Z,4.47
2017-08-15T15:30:30.501Z,5.00
2017-08-15T15:32:59.102Z,5.10
2017-08-15T15:35:28.055Z,4.67
2017-08-15T15:37:56.545Z,4.47
2017-08-15T15:40:24.816Z,5.07
2017-08-15T15:42:53.240Z,7.53
2017-08-15T15:45:21.511Z,9.73
2017-08-15T15:47:50.008Z,7.80
2017-08-15T15:50:18.426Z,7.30
2017-08-15T15:52:47.650Z,5.23
2017-08-15T15:55:16.127Z,5.67
2017-08-15T15:57:44.392Z,6.53
2017-08-15T16:00:13.729Z,10.00
2017-08-15T16:02:42.206Z,6.20
2017-08-15T16:05:10.807Z,6.63
2017-08-15T16:07:39.283Z,6.63
2017-08-15T16:10:07.742Z,5.33
2017-08-15T16:12:36.225Z,9.53
2017-08-15T16:15:04.843Z,6.57
2017-08-15T16:17:33.304Z,5.77
2017-08-15T16:20:01.784Z,5.97
2017-08-15T16:22:30.243Z,5.43
2017-08-15T16:24:59.525Z,5.73
2017-08-15T16:27:27.997Z,6.03
2017-08-15T16:29:56.486Z,6.40
2017-08-15T16:32:24.960Z,6.07
2017-08-15T16:34:53.410Z,6.03
2017-08-15T16:37:21.892Z,6.20
2017-08-15T16:39:50.171Z,7.03
2017-08-15T16:42:18.555Z,9.27
2017-08-15T16:44:46.852Z,11.90
2017-08-15T16:47:15.124Z,9.20
2017-08-15T16:49:43.611Z,7.47
2017-08-15T16:52:12.072Z,7.10
2017-08-15T16:54:40.348Z,10.60
2017-08-15T16:57:08.955Z,9.00
2017-08-15T16:59:37.302Z,8.43
2017-08-15T17:02:05.777Z,8.47
2017-08-15T17:04:34.231Z,8.67
2017-08-15T17:07:03.491Z,8.00
2017-08-15T17:09:31.947Z,12.93
2017-08-15T17:12:00.487Z,11.83
2017-08-15T17:14:28.971Z,7.93
2017-08-15T17:16:57.460Z,9.40
2017-08-15T17:19:26.708Z,8.73
2017-08-15T17:21:55.360Z,11.57
2017-08-15T17:24:24.499Z,11.40
2017-08-15T17:26:53.288Z,9.52
2017-08-15T17:29:21.856Z,10.07
2017-08-15T17:31:50.319Z,9.00
2017-08-15T17:34:18.790Z,9.87
2017-08-15T17:36:48.020Z,10.53
2017-08-15T17:39:16.502Z,13.30
2017-08-15T17:41:44.979Z,10.10
2017-08-15T17:44:13.507Z,10.37
2017-08-15T17:46:41.980Z,13.70
2017-08-15T17:49:10.443Z,12.50
2017-08-15T17:51:39.052Z,13.27
2017-08-15T17:54:07.666Z,13.13
2017-08-15T17:56:36.912Z,11.87
2017-08-15T17:59:05.387Z,11.37
2017-08-15T18:01:33.875Z,13.40
2017-08-15T18:04:02.372Z,12.57
2017-08-15T18:06:30.955Z,10.97
2017-08-15T18:08:59.531Z,10.53
2017-08-15T18:11:28.013Z,11.50
2017-08-15T18:13:56.708Z,15.37
2017-08-15T18:16:25.188Z,10.17
2017-08-15T18:18:53.664Z,11.63
2017-08-15T18:21:22.294Z,11.37
2017-08-15T18:23:50.761Z,10.40
2017-08-15T18:26:19.240Z,11.93
2017-08-15T18:28:47.728Z,15.30
2017-08-15T18:31:16.214Z,16.30
2017-08-15T18:33:44.681Z,15.40
2017-08-15T18:36:13.163Z,13.53
2017-08-15T18:38:41.648Z,14.60
2017-08-15T18:41:10.201Z,24.73
2017-08-15T18:43:38.704Z,15.73
2017-08-15T18:46:07.331Z,15.67
2017-08-15T18:48:36.571Z,12.43
2017-08-15T18:51:05.103Z,13.33
2017-08-15T18:53:33.575Z,12.00
2017-08-15T18:56:02.040Z,11.50
2017-08-15T18:58:30.335Z,11.57
2017-08-15T19:00:58.811Z,11.17
2017-08-15T19:03:27.347Z,12.00
2017-08-15T19:05:55.821Z,14.53
2017-08-15T19:08:24.298Z,14.07
2017-08-15T19:10:53.739Z,18.73
2017-08-15T19:13:22.215Z,16.53
2017-08-15T19:15:50.772Z,17.40
2017-08-15T19:18:20.007Z,16.20
2017-08-15T19:20:48.515Z,15.77
2017-08-15T19:23:17.040Z,17.47
2017-08-15T19:25:46.292Z,15.60
2017-08-15T19:28:14.780Z,16.80
2017-08-15T19:30:43.249Z,16.30
2017-08-15T19:33:11.736Z,16.47
2017-08-15T19:35:40.309Z,16.03
2017-08-15T19:38:08.779Z,16.73
2017-08-15T19:40:37.300Z,17.80
2017-08-15T19:43:05.772Z,14.90
2017-08-15T19:45:34.243Z,14.73
2017-08-15T19:48:02.737Z,15.03
2017-08-15T19:50:31.219Z,14.50
2017-08-15T19:52:59.787Z,14.47
2017-08-15T19:55:28.401Z,13.90
2017-08-15T19:57:56.900Z,12.47
2017-08-15T20:00:25.489Z,15.50
2017-08-15T20:02:54.749Z,13.20
2017-08-15T20:05:23.247Z,12.67
2017-08-15T20:07:51.740Z,16.17
2017-08-15T20:10:20.257Z,17.57
2017-08-15T20:12:48.732Z,12.33
2017-08-15T20:15:17.288Z,13.13
2017-08-15T20:17:45.755Z,11.87
2017-08-15T20:20:14.231Z,12.90
2017-08-15T20:22:42.721Z,12.50
2017-08-15T20:25:11.214Z,13.40
2017-08-15T20:27:39.678Z,11.73
2017-08-15T20:30:08.157Z,12.40
2017-08-15T20:32:36.634Z,10.60
2017-08-15T20:35:05.133Z,11.53
2017-08-15T20:37:33.631Z,13.13
2017-08-15T20:40:02.106Z,10.57
2017-08-15T20:42:30.667Z,11.70
2017-08-15T20:44:59.175Z,15.50
2017-08-15T20:47:27.675Z,11.20
2017-08-15T20:49:56.929Z,13.23
2017-08-15T20:52:25.652Z,11.50
2017-08-15T20:54:54.145Z,11.03
2017-08-15T20:57:23.380Z,11.07
2017-08-15T20:59:51.956Z,10.83
2017-08-15T21:02:20.435Z,11.23
2017-08-15T21:04:48.928Z,11.53
2017-08-15T21:07:17.541Z,12.87
2017-08-15T21:09:46.017Z,13.43
2017-08-15T21:12:14.504Z,12.40
2017-08-15T21:14:42.980Z,11.73
2017-08-15T21:17:11.534Z,12.47
2017-08-15T21:19:40.023Z,12.00
2017-08-15T21:22:08.581Z,11.77
2017-08-15T21:24:37.834Z,11.73
2017-08-15T21:27:06.308Z,12.00
2017-08-15T21:29:34.804Z,12.40
2017-08-15T21:32:03.320Z,12.00
2017-08-15T21:34:31.804Z,12.93
2017-08-15T21:37:00.293Z,12.00
2017-08-15T21:39:29.531Z,15.13
2017-08-15T21:41:58.011Z,12.63
2017-08-15T21:44:26.497Z,12.73
2017-08-15T21:46:55.119Z,10.97
2017-08-15T21:49:23.621Z,12.50
2017-08-15T21:51:52.847Z,10.37
2017-08-15T21:54:21.387Z,11.43
2017-08-15T21:56:50.043Z,12.30
2017-08-15T21:59:18.518Z,10.33
2017-08-15T22:01:52.548Z,10.70
2017-08-15T22:04:21.031Z,11.60
2017-08-15T22:06:49.524Z,11.50
2017-08-15T22:09:17.987Z,11.60
2017-08-15T22:11:46.484Z,12.80
2017-08-15T22:14:14.964Z,14.90
2017-08-15T22:16:43.552Z,10.33
2017-08-15T22:19:12.016Z,10.67
2017-08-15T22:21:40.498Z,12.03
2017-08-15T22:24:08.968Z,9.87
2017-08-15T22:26:37.422Z,10.60
2017-08-15T22:29:06.664Z,10.23
2017-08-15T22:31:35.942Z,9.47
2017-08-15T22:34:04.427Z,11.90
2017-08-15T22:36:32.907Z,10.90
2017-08-15T22:39:01.374Z,13.00
2017-08-15T22:41:30.637Z,9.53
2017-08-15T22:43:59.141Z,11.13
2017-08-15T22:46:27.625Z,10.10
2017-08-15T22:48:56.884Z,8.90
2017-08-15T22:51:25.423Z,9.00
2017-08-15T22:53:54.771Z,9.10
2017-08-15T22:56:23.236Z,11.53
2017-08-15T22:58:51.736Z,8.57
2017-08-15T23:01:20.209Z,9.03
2017-08-15T23:03:48.659Z,7.47
2017-08-15T23:06:17.911Z,9.20
2017-08-15T23:08:46.392Z,9.57
2017-08-15T23:11:14.875Z,9.63
2017-08-15T23:13:43.335Z,12.03
2017-08-15T23:16:11.812Z,7.73
2017-08-15T23:18:41.023Z,9.43
2017-08-15T23:21:09.492Z,7.80
2017-08-15T23:23:37.955Z,8.07
2017-08-15T23:26:06.419Z,9.60
2017-08-15T23:28:34.895Z,8.37
2017-08-15T23:31:03.503Z,11.93
2017-08-15T23:33:32.728Z,9.47
2017-08-15T23:36:01.209Z,9.77
2017-08-15T23:38:29.688Z,10.40
2017-08-15T23:40:58.183Z,8.97
2017-08-15T23:43:26.659Z,8.80
2017-08-15T23:45:55.282Z,10.90
2017-08-15T23:48:23.752Z,9.77
2017-08-15T23:50:52.242Z,12.50
2017-08-15T23:53:20.707Z,10.67
2017-08-15T23:55:49.194Z,11.13
2017-08-15T23:58:17.777Z,10.83
